sensor_id;sensor_type;location;lat;lon;timestamp;pressure;altitude;pressure_sealevel;temperature;humidity
74627;BME280;63132;52.268;5.192;2023-11-21T00:00:01;100878.22;;;16.48;48.58
74627;BME280;63132;52.268;5.192;2023-11-21T00:02:27;100881.53;;;16.43;48.42
74627;BME280;63132;52.268;5.192;2023-11-21T00:04:53;100884.19;;;16.34;49.12
74627;BME280;63132;52.268;5.192;2023-11-21T00:07:18;100885.44;;;16.33;49.48
74627;BME280;63132;52.268;5.192;2023-11-21T00:09:44;100888.63;;;16.19;50.49
74627;BME280;63132;52.268;5.192;2023-11-21T00:12:09;100890.81;;;16.40;49.58
74627;BME280;63132;52.268;5.192;2023-11-21T00:14:36;100896.63;;;16.46;49.13
74627;BME280;63132;52.268;5.192;2023-11-21T00:17:02;100895.09;;;16.57;48.99
74627;BME280;63132;52.268;5.192;2023-11-21T00:19:27;100900.50;;;16.65;49.20
74627;BME280;63132;52.268;5.192;2023-11-21T00:21:53;100904.59;;;16.76;48.89
74627;BME280;63132;52.268;5.192;2023-11-21T00:24:18;100897.53;;;16.72;49.22
74627;BME280;63132;52.268;5.192;2023-11-21T00:26:44;100891.59;;;16.82;47.93
74627;BME280;63132;52.268;5.192;2023-11-21T00:29:09;100897.34;;;16.92;48.71
74627;BME280;63132;52.268;5.192;2023-11-21T00:31:36;100902.78;;;16.82;48.57
74627;BME280;63132;52.268;5.192;2023-11-21T00:34:05;100899.78;;;16.89;48.54
74627;BME280;63132;52.268;5.192;2023-11-21T00:36:33;100900.56;;;16.90;48.02
74627;BME280;63132;52.268;5.192;2023-11-21T00:38:58;100900.78;;;16.83;48.94
74627;BME280;63132;52.268;5.192;2023-11-21T00:41:24;100899.69;;;16.93;48.34
74627;BME280;63132;52.268;5.192;2023-11-21T00:43:52;100899.56;;;17.09;48.84
74627;BME280;63132;52.268;5.192;2023-11-21T00:46:17;100901.47;;;17.12;46.95
74627;BME280;63132;52.268;5.192;2023-11-21T00:48:43;100911.91;;;17.25;48.44
74627;BME280;63132;52.268;5.192;2023-11-21T00:51:08;100913.69;;;17.44;48.25
74627;BME280;63132;52.268;5.192;2023-11-21T00:53:34;100917.47;;;17.50;47.54
74627;BME280;63132;52.268;5.192;2023-11-21T00:55:59;100912.78;;;17.47;47.85
74627;BME280;63132;52.268;5.192;2023-11-21T00:58:24;100914.34;;;17.48;48.19
74627;BME280;63132;52.268;5.192;2023-11-21T01:00:50;100919.59;;;17.59;47.70
74627;BME280;63132;52.268;5.192;2023-11-21T01:03:16;100922.72;;;17.61;47.50
74627;BME280;63132;52.268;5.192;2023-11-21T01:05:41;100930.81;;;17.59;47.94
74627;BME280;63132;52.268;5.192;2023-11-21T01:08:06;100923.50;;;17.61;48.85
74627;BME280;63132;52.268;5.192;2023-11-21T01:10:32;100926.34;;;17.74;48.36
74627;BME280;63132;52.268;5.192;2023-11-21T01:12:59;100917.69;;;17.81;47.74
74627;BME280;63132;52.268;5.192;2023-11-21T01:15:25;100930.09;;;17.93;47.56
74627;BME280;63132;52.268;5.192;2023-11-21T01:17:51;100926.25;;;17.99;47.28
74627;BME280;63132;52.268;5.192;2023-11-21T01:20:17;100929.59;;;18.07;47.51
74627;BME280;63132;52.268;5.192;2023-11-21T01:22:42;100933.31;;;18.04;47.79
74627;BME280;63132;52.268;5.192;2023-11-21T01:25:08;100935.53;;;18.09;47.51
74627;BME280;63132;52.268;5.192;2023-11-21T01:27:34;100941.50;;;18.11;46.91
74627;BME280;63132;52.268;5.192;2023-11-21T01:30:00;100945.00;;;18.24;47.75
74627;BME280;63132;52.268;5.192;2023-11-21T01:32:25;100938.09;;;18.16;47.83
74627;BME280;63132;52.268;5.192;2023-11-21T01:34:50;100944.81;;;18.19;47.74
74627;BME280;63132;52.268;5.192;2023-11-21T01:37:16;100945.00;;;18.24;47.77
74627;BME280;63132;52.268;5.192;2023-11-21T01:39:42;100952.00;;;18.20;47.90
74627;BME280;63132;52.268;5.192;2023-11-21T01:42:09;100953.53;;;18.34;47.52
74627;BME280;63132;52.268;5.192;2023-11-21T01:44:34;100960.91;;;18.40;47.37
74627;BME280;63132;52.268;5.192;2023-11-21T01:47:01;100958.41;;;18.42;47.31
74627;BME280;63132;52.268;5.192;2023-11-21T01:49:33;100969.88;;;18.35;47.97
74627;BME280;63132;52.268;5.192;2023-11-21T01:51:59;100965.69;;;18.40;48.05
74627;BME280;63132;52.268;5.192;2023-11-21T01:54:25;100964.81;;;18.43;48.19
74627;BME280;63132;52.268;5.192;2023-11-21T01:56:50;100976.09;;;18.52;46.90
74627;BME280;63132;52.268;5.192;2023-11-21T01:59:18;100973.13;;;18.68;46.71
74627;BME280;63132;52.268;5.192;2023-11-21T02:01:44;100973.34;;;18.61;47.72
74627;BME280;63132;52.268;5.192;2023-11-21T02:04:12;100978.44;;;18.53;48.03
74627;BME280;63132;52.268;5.192;2023-11-21T02:06:37;100984.50;;;18.52;47.30
74627;BME280;63132;52.268;5.192;2023-11-21T02:09:04;100985.03;;;18.60;46.94
74627;BME280;63132;52.268;5.192;2023-11-21T02:11:30;100987.50;;;18.58;48.09
74627;BME280;63132;52.268;5.192;2023-11-21T02:13:55;100992.97;;;18.61;47.66
74627;BME280;63132;52.268;5.192;2023-11-21T02:16:20;100988.78;;;18.78;46.68
74627;BME280;63132;52.268;5.192;2023-11-21T02:18:49;100993.75;;;18.74;47.79
74627;BME280;63132;52.268;5.192;2023-11-21T02:21:16;100994.00;;;18.67;47.94
74627;BME280;63132;52.268;5.192;2023-11-21T02:23:41;101002.81;;;18.78;47.35
74627;BME280;63132;52.268;5.192;2023-11-21T02:26:10;100999.63;;;18.89;47.57
74627;BME280;63132;52.268;5.192;2023-11-21T02:28:35;100994.19;;;18.73;47.67
74627;BME280;63132;52.268;5.192;2023-11-21T02:31:01;100992.50;;;18.75;48.26
74627;BME280;63132;52.268;5.192;2023-11-21T02:33:28;101000.34;;;18.80;47.86
74627;BME280;63132;52.268;5.192;2023-11-21T02:35:53;100998.09;;;18.75;47.58
74627;BME280;63132;52.268;5.192;2023-11-21T02:38:20;101001.78;;;18.85;47.41
74627;BME280;63132;52.268;5.192;2023-11-21T02:40:45;100999.03;;;18.72;48.21
74627;BME280;63132;52.268;5.192;2023-11-21T02:43:11;101001.84;;;18.72;47.60
74627;BME280;63132;52.268;5.192;2023-11-21T02:45:36;100995.78;;;18.61;47.28
74627;BME280;63132;52.268;5.192;2023-11-21T02:48:02;100998.97;;;18.50;48.89
74627;BME280;63132;52.268;5.192;2023-11-21T02:50:27;100998.44;;;18.43;48.38
74627;BME280;63132;52.268;5.192;2023-11-21T02:52:52;100991.88;;;18.24;47.21
74627;BME280;63132;52.268;5.192;2023-11-21T02:55:18;100997.16;;;18.22;48.18
74627;BME280;63132;52.268;5.192;2023-11-21T02:57:43;100999.44;;;18.14;48.45
74627;BME280;63132;52.268;5.192;2023-11-21T03:00:09;100996.31;;;18.12;48.09
74627;BME280;63132;52.268;5.192;2023-11-21T03:02:40;101002.38;;;17.98;49.17
74627;BME280;63132;52.268;5.192;2023-11-21T03:05:06;101000.00;;;18.09;48.51
74627;BME280;63132;52.268;5.192;2023-11-21T03:07:34;101001.59;;;18.10;48.57
74627;BME280;63132;52.268;5.192;2023-11-21T03:09:59;101003.00;;;18.27;48.16
74627;BME280;63132;52.268;5.192;2023-11-21T03:12:24;101001.44;;;18.26;48.22
74627;BME280;63132;52.268;5.192;2023-11-21T03:14:50;100999.63;;;18.33;47.98
74627;BME280;63132;52.268;5.192;2023-11-21T03:17:15;101005.53;;;18.35;47.85
74627;BME280;63132;52.268;5.192;2023-11-21T03:19:43;101003.28;;;18.42;47.38
74627;BME280;63132;52.268;5.192;2023-11-21T03:22:09;101005.31;;;18.42;47.79
74627;BME280;63132;52.268;5.192;2023-11-21T03:24:34;101007.78;;;18.62;48.07
74627;BME280;63132;52.268;5.192;2023-11-21T03:27:00;101003.19;;;18.68;48.24
74627;BME280;63132;52.268;5.192;2023-11-21T03:29:25;101008.09;;;18.76;46.99
74627;BME280;63132;52.268;5.192;2023-11-21T03:31:51;101008.75;;;18.80;47.96
74627;BME280;63132;52.268;5.192;2023-11-21T03:34:27;101004.44;;;18.67;46.80
74627;BME280;63132;52.268;5.192;2023-11-21T03:36:53;101016.66;;;18.73;48.34
74627;BME280;63132;52.268;5.192;2023-11-21T03:39:21;101009.84;;;19.05;47.81
74627;BME280;63132;52.268;5.192;2023-11-21T03:41:47;101019.19;;;19.02;47.69
74627;BME280;63132;52.268;5.192;2023-11-21T03:44:13;101020.44;;;19.01;47.82
74627;BME280;63132;52.268;5.192;2023-11-21T03:46:39;101025.91;;;19.04;47.38
74627;BME280;63132;52.268;5.192;2023-11-21T03:49:04;101028.66;;;18.95;47.82
74627;BME280;63132;52.268;5.192;2023-11-21T03:51:29;101027.56;;;18.93;48.33
74627;BME280;63132;52.268;5.192;2023-11-21T03:53:55;101036.28;;;19.17;47.34
74627;BME280;63132;52.268;5.192;2023-11-21T03:56:20;101038.91;;;19.11;47.24
74627;BME280;63132;52.268;5.192;2023-11-21T03:58:47;101048.00;;;19.15;46.36
74627;BME280;63132;52.268;5.192;2023-11-21T04:01:22;101050.97;;;19.21;47.61
74627;BME280;63132;52.268;5.192;2023-11-21T04:03:51;101048.00;;;19.15;48.42
74627;BME280;63132;52.268;5.192;2023-11-21T04:06:17;101052.72;;;19.05;46.77
74627;BME280;63132;52.268;5.192;2023-11-21T04:08:45;101058.03;;;18.81;47.66
74627;BME280;63132;52.268;5.192;2023-11-21T04:11:11;101061.53;;;18.73;48.20
74627;BME280;63132;52.268;5.192;2023-11-21T04:13:38;101060.66;;;18.63;49.94
74627;BME280;63132;52.268;5.192;2023-11-21T04:16:05;101058.94;;;18.78;48.36
74627;BME280;63132;52.268;5.192;2023-11-21T04:18:31;101060.09;;;18.90;49.05
74627;BME280;63132;52.268;5.192;2023-11-21T04:20:56;101072.22;;;19.00;47.89
74627;BME280;63132;52.268;5.192;2023-11-21T04:23:22;101068.06;;;18.92;48.03
74627;BME280;63132;52.268;5.192;2023-11-21T04:25:47;101081.72;;;19.02;48.35
74627;BME280;63132;52.268;5.192;2023-11-21T04:28:12;101079.97;;;18.96;47.61
74627;BME280;63132;52.268;5.192;2023-11-21T04:33:18;101088.06;;;18.94;48.21
74627;BME280;63132;52.268;5.192;2023-11-21T04:35:43;101085.31;;;18.68;47.64
74627;BME280;63132;52.268;5.192;2023-11-21T04:38:09;101090.59;;;18.79;48.30
74627;BME280;63132;52.268;5.192;2023-11-21T04:40:34;101086.50;;;18.93;47.99
74627;BME280;63132;52.268;5.192;2023-11-21T04:43:00;101089.38;;;19.02;47.73
74627;BME280;63132;52.268;5.192;2023-11-21T04:45:25;101090.25;;;18.99;48.05
74627;BME280;63132;52.268;5.192;2023-11-21T04:47:50;101092.69;;;19.09;47.62
74627;BME280;63132;52.268;5.192;2023-11-21T04:50:17;101097.84;;;19.11;47.94
74627;BME280;63132;52.268;5.192;2023-11-21T04:52:43;101095.72;;;19.15;48.69
74627;BME280;63132;52.268;5.192;2023-11-21T04:55:08;101097.34;;;19.25;48.04
74627;BME280;63132;52.268;5.192;2023-11-21T04:57:36;101102.09;;;19.16;48.59
74627;BME280;63132;52.268;5.192;2023-11-21T05:00:02;101103.88;;;19.22;48.35
74627;BME280;63132;52.268;5.192;2023-11-21T05:02:31;101105.19;;;19.30;48.09
74627;BME280;63132;52.268;5.192;2023-11-21T05:04:56;101096.81;;;19.18;48.19
74627;BME280;63132;52.268;5.192;2023-11-21T05:07:22;101105.19;;;19.30;47.93
74627;BME280;63132;52.268;5.192;2023-11-21T05:09:47;101114.84;;;19.29;48.26
74627;BME280;63132;52.268;5.192;2023-11-21T05:12:13;101118.09;;;19.28;48.64
74627;BME280;63132;52.268;5.192;2023-11-21T05:14:39;101116.00;;;19.41;47.66
74627;BME280;63132;52.268;5.192;2023-11-21T05:17:04;101110.78;;;19.52;47.29
74627;BME280;63132;52.268;5.192;2023-11-21T05:19:30;101120.25;;;19.46;47.34
74627;BME280;63132;52.268;5.192;2023-11-21T05:21:55;101120.69;;;19.66;47.65
74627;BME280;63132;52.268;5.192;2023-11-21T05:24:20;101123.59;;;19.53;47.53
74627;BME280;63132;52.268;5.192;2023-11-21T05:26:46;101130.03;;;19.41;47.93
74627;BME280;63132;52.268;5.192;2023-11-21T05:29:11;101128.03;;;19.42;47.62
74627;BME280;63132;52.268;5.192;2023-11-21T05:31:36;101131.50;;;19.46;47.69
74627;BME280;63132;52.268;5.192;2023-11-21T05:34:03;101133.38;;;19.49;48.14
74627;BME280;63132;52.268;5.192;2023-11-21T05:36:30;101145.38;;;19.49;48.22
74627;BME280;63132;52.268;5.192;2023-11-21T05:38:55;101148.06;;;19.31;48.65
74627;BME280;63132;52.268;5.192;2023-11-21T05:41:20;101150.53;;;19.29;48.28
74627;BME280;63132;52.268;5.192;2023-11-21T05:43:46;101152.31;;;19.35;48.25
74627;BME280;63132;52.268;5.192;2023-11-21T05:46:11;101155.63;;;19.43;47.79
74627;BME280;63132;52.268;5.192;2023-11-21T05:48:38;101156.34;;;19.34;47.80
74627;BME280;63132;52.268;5.192;2023-11-21T05:51:06;101166.56;;;19.41;48.45
74627;BME280;63132;52.268;5.192;2023-11-21T05:53:31;101161.88;;;19.38;47.26
74627;BME280;63132;52.268;5.192;2023-11-21T05:55:56;101161.72;;;19.42;47.93
74627;BME280;63132;52.268;5.192;2023-11-21T05:58:22;101168.84;;;19.33;47.96
74627;BME280;63132;52.268;5.192;2023-11-21T06:00:47;101168.97;;;19.30;48.45
74627;BME280;63132;52.268;5.192;2023-11-21T06:03:13;101168.44;;;19.22;47.63
74627;BME280;63132;52.268;5.192;2023-11-21T06:05:38;101170.84;;;19.11;49.68
74627;BME280;63132;52.268;5.192;2023-11-21T06:08:03;101178.03;;;19.34;48.84
74627;BME280;63132;52.268;5.192;2023-11-21T06:10:29;101183.19;;;19.35;47.95
74627;BME280;63132;52.268;5.192;2023-11-21T06:12:54;101178.56;;;19.42;48.31
74627;BME280;63132;52.268;5.192;2023-11-21T06:15:19;101189.09;;;19.50;48.72
74627;BME280;63132;52.268;5.192;2023-11-21T06:17:47;101201.84;;;19.64;48.73
74627;BME280;63132;52.268;5.192;2023-11-21T06:20:17;101199.53;;;18.93;52.10
74627;BME280;63132;52.268;5.192;2023-11-21T06:22:44;101198.41;;;19.25;52.65
74627;BME280;63132;52.268;5.192;2023-11-21T06:25:11;101203.56;;;19.61;50.52
74627;BME280;63132;52.268;5.192;2023-11-21T06:27:39;101204.53;;;19.11;51.85
74627;BME280;63132;52.268;5.192;2023-11-21T06:30:07;101199.53;;;18.93;52.59
74627;BME280;63132;52.268;5.192;2023-11-21T06:32:34;101196.91;;;19.33;52.81
74627;BME280;63132;52.268;5.192;2023-11-21T06:35:01;101206.91;;;19.34;51.85
74627;BME280;63132;52.268;5.192;2023-11-21T06:37:27;101204.03;;;19.25;52.39
74627;BME280;63132;52.268;5.192;2023-11-21T06:39:53;101203.03;;;19.19;52.53
74627;BME280;63132;52.268;5.192;2023-11-21T06:42:19;101212.22;;;19.32;52.58
74627;BME280;63132;52.268;5.192;2023-11-21T06:44:47;101220.44;;;19.14;52.38
74627;BME280;63132;52.268;5.192;2023-11-21T06:47:13;101224.72;;;19.53;52.12
74627;BME280;63132;52.268;5.192;2023-11-21T06:49:39;101223.25;;;19.14;54.12
74627;BME280;63132;52.268;5.192;2023-11-21T06:52:04;101237.19;;;18.70;53.91
74627;BME280;63132;52.268;5.192;2023-11-21T06:54:33;101235.94;;;19.19;53.72
74627;BME280;63132;52.268;5.192;2023-11-21T06:56:59;101230.44;;;19.50;53.66
74627;BME280;63132;52.268;5.192;2023-11-21T06:59:24;101243.03;;;19.23;52.46
74627;BME280;63132;52.268;5.192;2023-11-21T07:01:50;101242.03;;;19.74;52.29
74627;BME280;63132;52.268;5.192;2023-11-21T07:04:15;101242.56;;;19.25;52.46
74627;BME280;63132;52.268;5.192;2023-11-21T07:06:40;101258.47;;;18.93;53.90
74627;BME280;63132;52.268;5.192;2023-11-21T07:09:06;101252.94;;;19.15;53.32
74627;BME280;63132;52.268;5.192;2023-11-21T07:11:33;101255.19;;;19.99;51.97
74627;BME280;63132;52.268;5.192;2023-11-21T07:13:59;101268.25;;;19.71;51.69
74627;BME280;63132;52.268;5.192;2023-11-21T07:16:24;101269.25;;;18.57;54.20
74627;BME280;63132;52.268;5.192;2023-11-21T07:18:50;101265.63;;;19.07;54.39
74627;BME280;63132;52.268;5.192;2023-11-21T07:21:15;101265.28;;;19.05;55.53
74627;BME280;63132;52.268;5.192;2023-11-21T07:23:41;101271.72;;;18.67;55.47
74627;BME280;63132;52.268;5.192;2023-11-21T07:26:06;101271.50;;;19.00;55.34
74627;BME280;63132;52.268;5.192;2023-11-21T07:28:34;101272.09;;;19.29;53.36
74627;BME280;63132;52.268;5.192;2023-11-21T07:31:00;101280.41;;;19.20;54.62
74627;BME280;63132;52.268;5.192;2023-11-21T07:33:25;101283.56;;;18.46;54.32
74627;BME280;63132;52.268;5.192;2023-11-21T07:35:51;101283.94;;;18.99;53.08
74627;BME280;63132;52.268;5.192;2023-11-21T07:38:17;101301.75;;;19.30;53.82
74627;BME280;63132;52.268;5.192;2023-11-21T07:40:43;101300.88;;;18.57;55.50
74627;BME280;63132;52.268;5.192;2023-11-21T07:43:08;101306.28;;;18.90;55.01
74627;BME280;63132;52.268;5.192;2023-11-21T07:45:34;101317.91;;;18.50;56.63
74627;BME280;63132;52.268;5.192;2023-11-21T07:47:59;101317.41;;;19.88;52.34
74627;BME280;63132;52.268;5.192;2023-11-21T07:50:25;101318.94;;;19.20;53.29
74627;BME280;63132;52.268;5.192;2023-11-21T07:52:51;101318.66;;;18.79;55.89
74627;BME280;63132;52.268;5.192;2023-11-21T07:55:19;101318.13;;;19.79;52.63
74627;BME280;63132;52.268;5.192;2023-11-21T07:57:46;101326.72;;;19.16;52.86
74627;BME280;63132;52.268;5.192;2023-11-21T08:00:11;101346.13;;;18.30;55.61
74627;BME280;63132;52.268;5.192;2023-11-21T08:02:40;101355.34;;;18.85;54.56
74627;BME280;63132;52.268;5.192;2023-11-21T08:05:11;101350.63;;;18.27;57.43
74627;BME280;63132;52.268;5.192;2023-11-21T08:07:36;101353.25;;;18.60;55.38
74627;BME280;63132;52.268;5.192;2023-11-21T08:10:01;101355.47;;;18.40;56.88
74627;BME280;63132;52.268;5.192;2023-11-21T08:12:27;101367.50;;;18.53;56.29
74627;BME280;63132;52.268;5.192;2023-11-21T08:14:53;101362.19;;;19.09;53.42
74627;BME280;63132;52.268;5.192;2023-11-21T08:17:18;101365.31;;;19.24;55.12
74627;BME280;63132;52.268;5.192;2023-11-21T08:19:45;101366.19;;;19.47;52.76
74627;BME280;63132;52.268;5.192;2023-11-21T08:22:14;101375.63;;;19.53;53.48
74627;BME280;63132;52.268;5.192;2023-11-21T08:24:41;101379.59;;;19.04;55.00
74627;BME280;63132;52.268;5.192;2023-11-21T08:27:06;101376.78;;;19.30;54.09
74627;BME280;63132;52.268;5.192;2023-11-21T08:29:32;101387.34;;;19.13;54.46
74627;BME280;63132;52.268;5.192;2023-11-21T08:31:58;101387.66;;;19.28;55.00
74627;BME280;63132;52.268;5.192;2023-11-21T08:34:25;101404.41;;;18.51;55.88
74627;BME280;63132;52.268;5.192;2023-11-21T08:36:50;101402.63;;;19.38;54.25
74627;BME280;63132;52.268;5.192;2023-11-21T08:39:16;101413.16;;;19.59;52.70
74627;BME280;63132;52.268;5.192;2023-11-21T08:41:44;101414.28;;;19.36;53.03
74627;BME280;63132;52.268;5.192;2023-11-21T08:44:09;101437.41;;;18.89;53.95
74627;BME280;63132;52.268;5.192;2023-11-21T08:46:34;101436.69;;;18.14;55.85
74627;BME280;63132;52.268;5.192;2023-11-21T08:49:03;101434.94;;;18.20;56.02
74627;BME280;63132;52.268;5.192;2023-11-21T08:51:28;101429.81;;;17.70;58.27
74627;BME280;63132;52.268;5.192;2023-11-21T08:53:53;101447.28;;;18.52;55.95
74627;BME280;63132;52.268;5.192;2023-11-21T08:56:19;101450.50;;;18.67;54.96
74627;BME280;63132;52.268;5.192;2023-11-21T08:58:45;101454.06;;;18.67;55.30
74627;BME280;63132;52.268;5.192;2023-11-21T09:01:12;101462.31;;;18.58;55.07
74627;BME280;63132;52.268;5.192;2023-11-21T09:03:37;101459.31;;;18.65;54.07
74627;BME280;63132;52.268;5.192;2023-11-21T09:06:03;101462.13;;;18.65;53.85
74627;BME280;63132;52.268;5.192;2023-11-21T09:08:28;101473.09;;;18.60;54.24
74627;BME280;63132;52.268;5.192;2023-11-21T09:10:54;101472.97;;;19.59;52.87
74627;BME280;63132;52.268;5.192;2023-11-21T09:13:19;101479.63;;;18.98;54.16
74627;BME280;63132;52.268;5.192;2023-11-21T09:15:45;101470.22;;;18.92;53.50
74627;BME280;63132;52.268;5.192;2023-11-21T09:18:13;101486.41;;;18.43;54.79
74627;BME280;63132;52.268;5.192;2023-11-21T09:20:38;101482.44;;;18.98;54.40
74627;BME280;63132;52.268;5.192;2023-11-21T09:23:03;101484.25;;;17.69;56.26
74627;BME280;63132;52.268;5.192;2023-11-21T09:25:29;101490.56;;;18.51;55.01
74627;BME280;63132;52.268;5.192;2023-11-21T09:27:54;101498.25;;;18.63;53.49
74627;BME280;63132;52.268;5.192;2023-11-21T09:30:19;101501.31;;;18.23;56.31
74627;BME280;63132;52.268;5.192;2023-11-21T09:32:45;101504.88;;;18.98;54.47
74627;BME280;63132;52.268;5.192;2023-11-21T09:35:10;101506.44;;;18.99;54.02
74627;BME280;63132;52.268;5.192;2023-11-21T09:37:36;101522.44;;;18.73;55.47
74627;BME280;63132;52.268;5.192;2023-11-21T09:40:03;101519.25;;;18.42;53.47
74627;BME280;63132;52.268;5.192;2023-11-21T09:42:34;101543.34;;;18.40;53.63
74627;BME280;63132;52.268;5.192;2023-11-21T09:45:26;101534.25;;;19.35;53.75
74627;BME280;63132;52.268;5.192;2023-11-21T09:47:54;101545.78;;;19.79;50.67
74627;BME280;63132;52.268;5.192;2023-11-21T09:50:23;101539.38;;;19.66;51.89
74627;BME280;63132;52.268;5.192;2023-11-21T09:55:18;101544.44;;;19.71;51.54
74627;BME280;63132;52.268;5.192;2023-11-21T09:57:49;101551.56;;;20.23;50.68
74627;BME280;63132;52.268;5.192;2023-11-21T10:00:15;101548.59;;;19.67;51.37
74627;BME280;63132;52.268;5.192;2023-11-21T10:02:43;101547.09;;;20.00;52.14
74627;BME280;63132;52.268;5.192;2023-11-21T10:05:09;101563.19;;;20.00;49.62
74627;BME280;63132;52.268;5.192;2023-11-21T10:07:38;101562.50;;;20.08;51.50
74627;BME280;63132;52.268;5.192;2023-11-21T10:10:05;101567.72;;;19.17;51.98
74627;BME280;63132;52.268;5.192;2023-11-21T10:12:33;101568.44;;;19.47;50.86
74627;BME280;63132;52.268;5.192;2023-11-21T10:15:01;101580.97;;;18.10;56.29
74627;BME280;63132;52.268;5.192;2023-11-21T10:17:31;101580.78;;;18.95;53.16
74627;BME280;63132;52.268;5.192;2023-11-21T10:20:03;101588.69;;;18.84;52.11
74627;BME280;63132;52.268;5.192;2023-11-21T10:22:31;101586.19;;;19.44;52.49
74627;BME280;63132;52.268;5.192;2023-11-21T10:24:56;101595.41;;;18.24;54.25
74627;BME280;63132;52.268;5.192;2023-11-21T10:27:22;101597.50;;;18.53;53.46
74627;BME280;63132;52.268;5.192;2023-11-21T10:29:48;101607.44;;;19.03;53.89
74627;BME280;63132;52.268;5.192;2023-11-21T10:32:16;101605.75;;;18.44;54.41
74627;BME280;63132;52.268;5.192;2023-11-21T10:34:41;101612.84;;;18.81;55.26
74627;BME280;63132;52.268;5.192;2023-11-21T10:37:13;101623.16;;;18.84;54.19
74627;BME280;63132;52.268;5.192;2023-11-21T10:39:38;101626.69;;;19.17;52.85
74627;BME280;63132;52.268;5.192;2023-11-21T10:42:04;101627.66;;;19.40;51.59
74627;BME280;63132;52.268;5.192;2023-11-21T10:44:29;101624.34;;;19.70;49.95
74627;BME280;63132;52.268;5.192;2023-11-21T10:46:54;101630.47;;;18.81;51.93
74627;BME280;63132;52.268;5.192;2023-11-21T10:49:25;101631.78;;;19.77;49.85
74627;BME280;63132;52.268;5.192;2023-11-21T10:51:51;101628.94;;;19.64;52.07
74627;BME280;63132;52.268;5.192;2023-11-21T10:54:25;101631.56;;;20.22;51.40
74627;BME280;63132;52.268;5.192;2023-11-21T10:56:57;101628.88;;;20.44;50.66
74627;BME280;63132;52.268;5.192;2023-11-21T10:59:22;101639.66;;;19.40;51.27
74627;BME280;63132;52.268;5.192;2023-11-21T11:01:50;101641.25;;;18.67;52.67
74627;BME280;63132;52.268;5.192;2023-11-21T11:04:18;101643.97;;;19.16;54.18
74627;BME280;63132;52.268;5.192;2023-11-21T11:06:49;101653.81;;;20.04;50.84
74627;BME280;63132;52.268;5.192;2023-11-21T11:09:17;101656.88;;;19.13;54.06
74627;BME280;63132;52.268;5.192;2023-11-21T11:11:42;101660.09;;;19.70;51.62
74627;BME280;63132;52.268;5.192;2023-11-21T11:14:11;101661.81;;;19.09;53.37
74627;BME280;63132;52.268;5.192;2023-11-21T11:16:38;101673.03;;;19.80;50.29
74627;BME280;63132;52.268;5.192;2023-11-21T11:19:10;101668.78;;;18.72;53.84
74627;BME280;63132;52.268;5.192;2023-11-21T11:24:57;101675.19;;;19.47;52.27
74627;BME280;63132;52.268;5.192;2023-11-21T11:27:52;101664.50;;;19.42;50.58
74627;BME280;63132;52.268;5.192;2023-11-21T11:33:00;101675.59;;;19.32;52.48
74627;BME280;63132;52.268;5.192;2023-11-21T11:36:02;101675.09;;;20.17;49.45
74627;BME280;63132;52.268;5.192;2023-11-21T11:38:33;101676.69;;;19.22;50.37
74627;BME280;63132;52.268;5.192;2023-11-21T11:41:02;101681.81;;;19.95;49.29
74627;BME280;63132;52.268;5.192;2023-11-21T11:43:31;101687.34;;;18.98;52.70
74627;BME280;63132;52.268;5.192;2023-11-21T11:46:09;101686.38;;;19.34;51.63
74627;BME280;63132;52.268;5.192;2023-11-21T11:48:37;101688.88;;;18.87;52.64
74627;BME280;63132;52.268;5.192;2023-11-21T11:51:12;101686.22;;;19.54;50.82
74627;BME280;63132;52.268;5.192;2023-11-21T11:53:46;101701.94;;;19.80;50.42
74627;BME280;63132;52.268;5.192;2023-11-21T11:56:31;101697.28;;;20.54;48.16
74627;BME280;63132;52.268;5.192;2023-11-21T11:59:01;101694.31;;;19.94;50.87
74627;BME280;63132;52.268;5.192;2023-11-21T12:01:34;101704.84;;;19.48;51.90
74627;BME280;63132;52.268;5.192;2023-11-21T12:06:42;101711.22;;;19.64;51.62
74627;BME280;63132;52.268;5.192;2023-11-21T12:09:19;101713.00;;;20.00;50.34
74627;BME280;63132;52.268;5.192;2023-11-21T12:11:46;101714.63;;;19.72;50.44
74627;BME280;63132;52.268;5.192;2023-11-21T12:14:11;101714.91;;;19.90;52.86
74627;BME280;63132;52.268;5.192;2023-11-21T12:16:38;101713.84;;;19.72;50.26
74627;BME280;63132;52.268;5.192;2023-11-21T12:19:03;101706.38;;;19.07;51.07
74627;BME280;63132;52.268;5.192;2023-11-21T12:21:29;101712.09;;;19.32;51.38
74627;BME280;63132;52.268;5.192;2023-11-21T12:23:55;101719.19;;;18.75;52.18
74627;BME280;63132;52.268;5.192;2023-11-21T12:26:23;101714.97;;;19.16;52.29
74627;BME280;63132;52.268;5.192;2023-11-21T12:28:54;101726.75;;;19.40;52.75
74627;BME280;63132;52.268;5.192;2023-11-21T12:31:23;101720.88;;;18.73;53.47
74627;BME280;63132;52.268;5.192;2023-11-21T12:33:50;101727.94;;;19.10;52.19
74627;BME280;63132;52.268;5.192;2023-11-21T12:36:16;101726.22;;;18.67;52.99
74627;BME280;63132;52.268;5.192;2023-11-21T12:38:42;101731.84;;;19.74;51.66
74627;BME280;63132;52.268;5.192;2023-11-21T12:41:08;101741.28;;;19.06;51.83
74627;BME280;63132;52.268;5.192;2023-11-21T12:43:35;101738.25;;;19.87;49.67
74627;BME280;63132;52.268;5.192;2023-11-21T12:46:08;101748.03;;;19.54;51.58
74627;BME280;63132;52.268;5.192;2023-11-21T12:48:37;101747.50;;;19.14;51.10
74627;BME280;63132;52.268;5.192;2023-11-21T12:51:05;101750.94;;;18.89;51.92
74627;BME280;63132;52.268;5.192;2023-11-21T12:53:32;101751.25;;;18.58;52.95
74627;BME280;63132;52.268;5.192;2023-11-21T12:56:05;101758.72;;;19.75;50.99
74627;BME280;63132;52.268;5.192;2023-11-21T12:58:31;101759.50;;;19.30;50.73
74627;BME280;63132;52.268;5.192;2023-11-21T13:00:59;101767.44;;;18.70;52.42